createdAt,value
2022-08-27T00:00:17.217Z,101989.78
2022-08-27T00:02:44.550Z,101998.16
2022-08-27T00:05:13.409Z,101995.47
2022-08-27T00:07:40.702Z,101990.38
2022-08-27T00:10:09.396Z,101994.50
2022-08-27T00:12:36.596Z,101983.72
2022-08-27T00:15:05.660Z,101982.47
2022-08-27T00:17:33.047Z,101989.56
2022-08-27T00:19:59.827Z,101987.19
2022-08-27T00:22:26.496Z,101983.22
2022-08-27T00:24:53.327Z,101975.94
2022-08-27T00:27:20.046Z,101980.53
2022-08-27T00:29:47.590Z,101974.97
2022-08-27T00:32:14.764Z,101977.66
2022-08-27T00:34:41.478Z,101975.16
2022-08-27T00:37:08.041Z,101978.31
2022-08-27T00:39:36.924Z,101976.72
2022-08-27T00:42:08.008Z,101976.41
2022-08-27T00:44:35.135Z,101969.44
2022-08-27T00:47:05.795Z,101970.41
2022-08-27T00:49:41.320Z,101971.19
2022-08-27T00:52:12.002Z,101962.94
2022-08-27T00:54:38.825Z,101967.84
2022-08-27T00:57:06.741Z,101968.50
2022-08-27T00:59:33.382Z,101968.78
2022-08-27T01:02:19.242Z,101973.69
2022-08-27T01:04:53.222Z,101981.78
2022-08-27T01:07:20.536Z,101982.09
2022-08-27T01:09:50.030Z,101981.28
2022-08-27T01:12:18.295Z,101975.13
2022-08-27T01:14:46.633Z,101982.38
2022-08-27T01:17:15.776Z,101988.13
2022-08-27T01:19:45.447Z,101982.38
2022-08-27T01:22:31.218Z,101982.56
2022-08-27T01:25:02.355Z,101990.81
2022-08-27T01:27:31.583Z,101977.53
2022-08-27T01:30:00.800Z,101975.63
2022-08-27T01:32:31.944Z,101971.50
2022-08-27T01:35:00.363Z,101975.81
2022-08-27T01:37:28.165Z,101980.84
2022-08-27T01:39:56.751Z,101976.28
2022-08-27T01:42:31.216Z,101977.84
2022-08-27T01:45:05.903Z,101985.94
2022-08-27T01:47:36.200Z,101982.28
2022-08-27T01:50:11.161Z,101978.63
2022-08-27T01:52:38.211Z,101971.19
2022-08-27T01:55:08.377Z,101967.69
2022-08-27T01:57:36.046Z,101979.25
2022-08-27T02:00:10.705Z,101974.66
2022-08-27T02:02:37.875Z,101972.28
2022-08-27T02:05:04.926Z,101969.09
2022-08-27T02:07:33.829Z,101966.72
2022-08-27T02:10:00.500Z,101960.25
2022-08-27T02:12:27.084Z,101968.63
2022-08-27T02:14:53.631Z,101960.53
2022-08-27T02:17:20.425Z,101963.53
2022-08-27T02:19:47.065Z,101962.75
2022-08-27T02:22:13.639Z,101960.38
2022-08-27T02:24:42.190Z,101953.09
2022-08-27T02:27:09.599Z,101960.38
2022-08-27T02:29:36.336Z,101960.38
2022-08-27T02:32:03.226Z,101956.09
2022-08-27T02:34:30.125Z,101953.72
2022-08-27T02:36:57.468Z,101955.31
2022-08-27T02:39:24.257Z,101952.28
2022-08-27T02:41:50.779Z,101959.09
2022-08-27T02:44:17.585Z,101951.03
2022-08-27T02:46:44.586Z,101958.00
2022-08-27T02:49:11.350Z,101955.31
2022-08-27T02:51:38.126Z,101957.19
2022-08-27T02:54:05.833Z,101952.44
2022-08-27T02:56:36.491Z,101951.66
2022-08-27T02:59:03.021Z,101943.88
2022-08-27T03:01:29.716Z,101951.16
2022-08-27T03:03:57.400Z,101946.09
2022-08-27T03:06:23.975Z,101944.03
2022-08-27T03:08:52.574Z,101950.50
2022-08-27T03:11:21.423Z,101943.22
2022-08-27T03:13:48.576Z,101943.22
2022-08-27T03:16:15.392Z,101935.47
2022-08-27T03:18:41.983Z,101941.47
2022-08-27T03:21:08.942Z,101941.00
2022-08-27T03:23:35.863Z,101941.63
2022-08-27T03:26:10.028Z,101939.22
2022-08-27T03:28:36.707Z,101944.44
2022-08-27T03:31:13.511Z,101946.16
2022-08-27T03:33:41.101Z,101941.41
2022-08-27T03:36:08.761Z,101947.69
2022-08-27T03:38:36.690Z,101938.34
2022-08-27T03:41:04.667Z,101940.25
2022-08-27T03:43:32.003Z,101941.69
2022-08-27T03:46:01.652Z,101941.69
2022-08-27T03:48:31.016Z,101941.19
2022-08-27T03:50:58.024Z,101940.72
2022-08-27T03:53:24.863Z,101939.09
2022-08-27T03:55:51.611Z,101942.44
2022-08-27T03:58:18.470Z,101946.53
2022-08-27T04:00:45.280Z,101951.44
2022-08-27T04:03:13.393Z,101948.75
2022-08-27T04:05:40.756Z,101947.16
2022-08-27T04:08:09.780Z,101955.41
2022-08-27T04:10:40.073Z,101954.28
2022-08-27T04:13:06.676Z,101953.19
2022-08-27T04:15:33.592Z,101961.56
2022-08-27T04:18:00.152Z,101954.91
2022-08-27T04:20:35.747Z,101960.09
2022-08-27T04:23:02.728Z,101962.00
2022-08-27T04:25:29.492Z,101959.09
2022-08-27T04:27:56.056Z,101959.09
2022-08-27T04:30:22.818Z,101954.50
2022-08-27T04:32:50.752Z,101957.53
2022-08-27T04:35:17.646Z,101954.03
2022-08-27T04:37:44.360Z,101948.97
2022-08-27T04:40:12.424Z,101954.97
2022-08-27T04:42:38.900Z,101943.41
2022-08-27T04:45:06.212Z,101951.47
2022-08-27T04:47:33.176Z,101954.47
2022-08-27T04:49:59.801Z,101950.19
2022-08-27T04:52:27.094Z,101951.00
2022-08-27T04:54:53.966Z,101954.97
2022-08-27T04:57:21.084Z,101957.34
2022-08-27T04:59:48.112Z,101965.72
2022-08-27T05:02:14.778Z,101966.00
2022-08-27T05:04:42.712Z,101958.56
2022-08-27T05:07:10.900Z,101965.84
2022-08-27T05:09:37.690Z,101963.16
2022-08-27T05:12:04.723Z,101966.66
2022-08-27T05:14:32.838Z,101965.38
2022-08-27T05:17:00.539Z,101960.28
2022-08-27T05:19:28.027Z,101969.16
2022-08-27T05:21:54.736Z,101959.50
2022-08-27T05:24:21.743Z,101962.97
2022-08-27T05:26:49.507Z,101964.59
2022-08-27T05:29:16.168Z,101964.25
2022-08-27T05:31:43.082Z,101970.75
2022-08-27T05:34:16.450Z,101971.22
2022-08-27T05:36:49.356Z,101978.19
2022-08-27T05:39:16.793Z,101987.06
2022-08-27T05:41:43.777Z,101982.47
2022-08-27T05:44:37.209Z,101976.00
2022-08-27T05:46:57.622Z,101976.00
2022-08-27T05:49:24.247Z,101980.28
2022-08-27T05:51:51.110Z,101982.63
2022-08-27T05:54:19.736Z,101981.25
2022-08-27T05:56:49.396Z,101982.03
2022-08-27T05:59:34.798Z,101978.56
2022-08-27T06:02:02.186Z,101986.63
2022-08-27T06:04:28.889Z,101977.44
2022-08-27T06:06:55.628Z,101983.31
2022-08-27T06:09:26.909Z,101974.94
2022-08-27T06:11:55.496Z,101981.63
2022-08-27T06:17:04.592Z,101982.31
2022-08-27T06:19:31.313Z,101983.09
2022-08-27T06:22:00.912Z,101974.72
2022-08-27T06:24:36.531Z,101977.41
2022-08-27T06:27:03.094Z,101983.28
2022-08-27T06:29:30.045Z,101978.09
2022-08-27T06:31:56.595Z,101980.94
2022-08-27T06:34:23.353Z,101983.03
2022-08-27T06:36:49.869Z,101988.06
2022-08-27T06:39:16.941Z,101978.75
2022-08-27T06:41:44.261Z,101989.13
2022-08-27T06:44:13.310Z,101982.97
2022-08-27T06:46:40.648Z,101987.13
2022-08-27T06:49:07.811Z,101988.53
2022-08-27T06:51:36.889Z,101981.13
2022-08-27T06:54:08.103Z,101984.47
2022-08-27T06:56:35.755Z,101981.97
2022-08-27T06:59:09.913Z,101985.28
2022-08-27T07:01:40.993Z,101988.03
2022-08-27T07:04:10.870Z,101983.44
2022-08-27T07:06:38.240Z,101990.13
2022-08-27T07:09:05.844Z,101988.41
2022-08-27T07:11:32.686Z,101990.00
2022-08-27T07:14:00.241Z,101991.44
2022-08-27T07:16:28.808Z,101985.56
2022-08-27T07:19:01.852Z,101985.09
2022-08-27T07:21:30.952Z,101976.88
2022-08-27T07:23:59.684Z,101983.81
2022-08-27T07:26:26.733Z,101987.78
2022-08-27T07:28:53.823Z,101980.03
2022-08-27T07:31:22.829Z,101981.59
2022-08-27T07:33:52.594Z,101991.28
2022-08-27T07:36:21.433Z,101991.28
2022-08-27T07:39:00.907Z,101996.53
2022-08-27T07:41:31.798Z,101992.69
2022-08-27T07:44:19.594Z,101996.69
2022-08-27T07:46:49.068Z,101995.22
2022-08-27T07:49:18.930Z,102002.53
2022-08-27T07:51:46.705Z,101998.38
2022-08-27T07:54:14.517Z,102010.91
2022-08-27T07:56:42.059Z,102000.44
2022-08-27T07:59:09.245Z,102005.03
2022-08-27T08:01:36.542Z,102008.22
2022-08-27T08:04:03.574Z,102014.09
2022-08-27T08:06:30.285Z,102014.25
2022-08-27T08:08:56.868Z,102002.94
2022-08-27T08:11:23.451Z,102008.19
2022-08-27T08:13:50.025Z,102008.47
2022-08-27T08:16:16.616Z,102004.00
2022-08-27T08:18:45.275Z,102011.94
2022-08-27T08:21:15.087Z,102016.03
2022-08-27T08:23:44.046Z,102014.25
2022-08-27T08:26:12.478Z,102009.47
2022-08-27T08:28:40.401Z,102011.66
2022-08-27T08:31:07.774Z,102013.41
2022-08-27T08:33:35.766Z,102018.47
2022-08-27T08:36:15.711Z,102023.88
2022-08-27T08:38:42.975Z,102017.59
2022-08-27T08:41:51.970Z,102018.44
2022-08-27T08:44:31.159Z,102020.94
2022-08-27T08:46:57.741Z,102019.00
2022-08-27T08:49:42.707Z,102022.00
2022-08-27T08:52:26.448Z,102018.63
2022-08-27T08:55:26.096Z,102021.94
2022-08-27T08:58:21.994Z,102023.06
2022-08-27T09:00:58.096Z,102028.59
2022-08-27T09:03:25.577Z,102027.28
2022-08-27T09:06:02.005Z,102025.66
2022-08-27T09:08:41.910Z,102021.94
2022-08-27T09:11:20.876Z,102026.38
2022-08-27T09:13:52.227Z,102024.78
2022-08-27T09:16:20.212Z,102022.56
2022-08-27T09:18:51.104Z,102018.72
2022-08-27T09:21:46.554Z,102024.09
2022-08-27T09:24:18.864Z,102028.34
2022-08-27T09:26:47.022Z,102033.91
2022-08-27T09:29:20.789Z,102032.91
2022-08-27T09:31:54.330Z,102033.56
2022-08-27T09:34:21.819Z,102028.59
2022-08-27T09:37:00.877Z,102037.53
2022-08-27T09:39:34.937Z,102037.53
2022-08-27T09:42:03.239Z,102045.66
2022-08-27T09:44:32.745Z,102046.91
2022-08-27T09:47:02.954Z,102038.13
2022-08-27T09:49:31.462Z,102044.34
2022-08-27T09:51:58.979Z,102030.47
2022-08-27T09:54:28.699Z,102031.53
2022-08-27T09:56:55.474Z,102029.59
2022-08-27T09:59:31.738Z,102031.81
2022-08-27T10:02:18.415Z,102028.63
2022-08-27T10:04:51.851Z,102028.75
2022-08-27T10:07:46.162Z,102022.69
2022-08-27T10:10:35.043Z,102026.28
2022-08-27T10:13:19.825Z,102030.34
2022-08-27T10:15:59.289Z,102021.94
2022-08-27T10:18:50.417Z,102030.81
2022-08-27T10:21:24.132Z,102028.75
2022-08-27T10:24:02.803Z,102032.75
2022-08-27T10:26:45.916Z,102035.69
2022-08-27T10:29:40.279Z,102035.09
2022-08-27T10:32:25.779Z,102037.16
2022-08-27T10:35:09.105Z,102039.19
2022-08-27T10:38:06.165Z,102037.94
2022-08-27T10:40:38.647Z,102037.84
2022-08-27T10:43:37.962Z,102031.31
2022-08-27T10:46:36.495Z,102039.06
2022-08-27T10:49:09.460Z,102036.03
2022-08-27T10:52:00.230Z,102040.78
2022-08-27T10:54:39.833Z,102026.25
2022-08-27T10:57:40.025Z,102020.94
2022-08-27T11:00:16.091Z,102026.84
2022-08-27T11:02:57.751Z,102027.31
2022-08-27T11:05:42.407Z,102026.34
2022-08-27T11:08:17.309Z,102027.25
2022-08-27T11:10:48.953Z,102025.78
2022-08-27T11:13:26.514Z,102026.72
2022-08-27T11:15:56.328Z,102035.16
2022-08-27T11:18:32.055Z,102024.00
2022-08-27T11:21:05.253Z,102024.78
2022-08-27T11:23:49.119Z,102017.72
2022-08-27T11:26:15.908Z,102016.75
2022-08-27T11:28:54.142Z,102018.91
2022-08-27T11:31:51.195Z,102025.66
2022-08-27T11:34:29.837Z,102022.50
2022-08-27T11:37:22.097Z,102017.50
2022-08-27T11:40:19.230Z,102025.72
2022-08-27T11:42:48.317Z,102016.34
2022-08-27T11:45:22.422Z,102027.81
2022-08-27T11:48:01.140Z,102025.47
2022-08-27T11:50:34.094Z,102016.06
2022-08-27T11:53:08.336Z,102022.03
2022-08-27T11:55:38.476Z,102006.59
2022-08-27T11:58:34.168Z,102018.47
2022-08-27T12:01:27.098Z,102015.19
2022-08-27T12:04:20.906Z,102013.88
2022-08-27T12:07:08.249Z,102006.66
2022-08-27T12:09:56.674Z,102009.84
2022-08-27T12:12:35.649Z,102010.28
2022-08-27T12:15:13.197Z,102008.50
2022-08-27T12:18:00.527Z,102006.50
2022-08-27T12:20:52.968Z,102014.16
2022-08-27T12:23:43.930Z,102014.53
2022-08-27T12:26:25.593Z,102009.66
2022-08-27T12:29:16.335Z,102006.53
2022-08-27T12:31:47.139Z,102007.09
2022-08-27T12:34:25.857Z,102009.34
2022-08-27T12:36:55.776Z,102013.75
2022-08-27T12:39:36.511Z,102004.88
2022-08-27T12:42:13.358Z,102010.53
2022-08-27T12:44:39.986Z,102008.16
2022-08-27T12:47:12.425Z,101994.38
2022-08-27T12:49:52.584Z,102005.78
2022-08-27T12:52:37.016Z,101998.69
2022-08-27T12:55:25.611Z,101997.53
2022-08-27T12:58:06.821Z,101996.50
2022-08-27T13:00:50.827Z,102005.00
2022-08-27T13:03:26.319Z,101994.16
2022-08-27T13:05:59.487Z,101993.03
2022-08-27T13:08:33.088Z,101992.34
2022-08-27T13:11:24.303Z,101991.53
2022-08-27T13:13:51.987Z,101988.16
2022-08-27T13:16:22.096Z,101983.88
2022-08-27T13:18:50.377Z,101989.72
2022-08-27T13:21:23.482Z,101985.00
2022-08-27T13:23:58.888Z,101982.59
2022-08-27T13:26:29.646Z,101978.97
2022-08-27T13:29:02.636Z,101976.44
2022-08-27T13:31:32.493Z,101981.44
2022-08-27T13:34:00.928Z,101975.34
2022-08-27T13:36:27.820Z,101971.25
2022-08-27T13:39:01.179Z,101970.31
2022-08-27T13:41:29.660Z,101971.97
2022-08-27T13:43:59.536Z,101971.91
2022-08-27T13:46:32.139Z,101978.50
2022-08-27T13:49:00.178Z,101980.06
2022-08-27T13:51:31.136Z,101986.84
2022-08-27T13:54:13.966Z,101990.13
2022-08-27T13:56:57.353Z,101985.81
2022-08-27T13:59:27.444Z,101983.09
2022-08-27T14:02:01.482Z,101988.31
2022-08-27T14:04:45.838Z,101989.88
2022-08-27T14:07:20.500Z,101987.06
2022-08-27T14:09:54.578Z,101979.06
2022-08-27T14:12:33.750Z,101986.63
2022-08-27T14:15:18.296Z,101984.41
2022-08-27T14:17:47.041Z,101988.59
2022-08-27T14:20:16.048Z,101977.38
2022-08-27T14:22:44.030Z,101974.81
2022-08-27T14:25:13.724Z,101982.81
2022-08-27T14:27:41.971Z,101979.00
2022-08-27T14:30:29.686Z,101984.63
2022-08-27T14:33:00.817Z,101985.09
2022-08-27T14:35:29.778Z,101985.09
2022-08-27T14:37:57.768Z,101983.19
2022-08-27T14:40:24.498Z,101983.28
2022-08-27T14:42:51.966Z,101990.84
2022-08-27T14:45:18.640Z,101982.50
2022-08-27T14:47:45.559Z,101987.56
2022-08-27T14:50:13.472Z,101991.84
2022-08-27T14:52:42.810Z,102000.09
2022-08-27T14:55:11.269Z,101991.53
2022-08-27T14:57:38.338Z,102002.81
2022-08-27T15:00:06.123Z,101995.13
2022-08-27T15:02:32.752Z,101999.88
2022-08-27T15:05:00.284Z,101994.47
2022-08-27T15:07:27.010Z,101999.97
2022-08-27T15:09:56.006Z,102008.69
2022-08-27T15:12:26.324Z,102007.94
2022-08-27T15:14:53.729Z,102009.72
2022-08-27T15:17:34.174Z,102008.81
2022-08-27T15:20:04.810Z,102001.47
2022-08-27T15:22:34.413Z,102009.97
2022-08-27T15:25:02.936Z,102016.06
2022-08-27T15:27:34.705Z,102012.22
2022-08-27T15:30:11.771Z,102015.16
2022-08-27T15:32:42.421Z,102013.25
2022-08-27T15:35:14.087Z,102017.31
2022-08-27T15:37:42.493Z,102016.69
2022-08-27T15:40:10.503Z,102019.72
2022-08-27T15:42:39.121Z,102023.13
2022-08-27T15:45:07.364Z,102026.28
2022-08-27T15:47:34.447Z,102014.72
2022-08-27T15:50:01.262Z,102023.66
2022-08-27T15:52:36.398Z,102016.19
2022-08-27T15:55:21.772Z,102008.41
2022-08-27T15:57:48.987Z,102019.34
2022-08-27T16:00:17.262Z,102017.78
2022-08-27T16:02:46.463Z,102013.38
2022-08-27T16:05:17.236Z,102013.50
2022-08-27T16:07:44.651Z,102010.59
2022-08-27T16:10:11.943Z,102022.06
2022-08-27T16:12:38.566Z,102015.53
2022-08-27T16:15:07.025Z,102015.53
2022-08-27T16:17:34.949Z,102014.16
2022-08-27T16:20:01.882Z,102009.41
2022-08-27T16:22:28.860Z,102012.91
2022-08-27T16:24:55.725Z,102011.75
2022-08-27T16:27:22.413Z,102024.84
2022-08-27T16:29:49.043Z,102024.47
2022-08-27T16:32:18.943Z,102028.75
2022-08-27T16:34:47.440Z,102015.88
2022-08-27T16:37:22.501Z,102025.66
2022-08-27T16:39:49.334Z,102022.03
2022-08-27T16:42:16.096Z,102024.97
2022-08-27T16:44:42.976Z,102026.25
2022-08-27T16:47:09.509Z,102024.66
2022-08-27T16:49:54.753Z,102029.91
2022-08-27T16:52:23.515Z,102010.94
2022-08-27T16:54:51.373Z,102019.56
2022-08-27T16:57:18.934Z,102015.81
2022-08-27T16:59:45.972Z,102016.00
2022-08-27T17:02:30.134Z,102017.59
2022-08-27T17:05:17.390Z,102025.38
2022-08-27T17:07:47.828Z,102020.31
2022-08-27T17:10:17.823Z,102020.03
2022-08-27T17:12:46.292Z,102027.81
2022-08-27T17:15:14.558Z,102028.13
2022-08-27T17:17:42.142Z,102025.78
2022-08-27T17:20:09.062Z,102026.28
2022-08-27T17:22:35.814Z,102029.31
2022-08-27T17:25:02.500Z,102025.53
2022-08-27T17:27:29.031Z,102022.38
2022-08-27T17:29:55.798Z,102024.88
2022-08-27T17:32:23.616Z,102023.78
2022-08-27T17:34:50.191Z,102027.94
2022-08-27T17:37:16.828Z,102022.84
2022-08-27T17:39:45.575Z,102024.47
2022-08-27T17:42:12.184Z,102035.16
2022-08-27T17:44:39.032Z,102035.78
2022-08-27T17:47:07.847Z,102034.06
2022-08-27T17:49:34.483Z,102034.34
2022-08-27T17:52:05.109Z,102029.63
2022-08-27T17:54:36.843Z,102027.88
2022-08-27T17:57:10.330Z,102027.59
2022-08-27T17:59:38.661Z,102036.81
2022-08-27T18:02:05.480Z,102029.38
2022-08-27T18:04:33.021Z,102035.28
2022-08-27T18:06:59.816Z,102030.19
2022-08-27T18:09:26.813Z,102044.00
2022-08-27T18:11:53.848Z,102042.94
2022-08-27T18:14:23.092Z,102042.31
2022-08-27T18:16:49.706Z,102051.69
2022-08-27T18:19:16.675Z,102048.84
2022-08-27T18:21:46.849Z,102053.63
2022-08-27T18:24:14.471Z,102055.03
2022-08-27T18:26:41.297Z,102061.09
2022-08-27T18:29:08.212Z,102060.94
2022-08-27T18:31:35.003Z,102064.75
2022-08-27T18:34:02.369Z,102068.56
2022-08-27T18:36:29.026Z,102069.84
2022-08-27T18:38:55.792Z,102077.47
2022-08-27T18:41:23.410Z,102079.66
2022-08-27T18:43:50.139Z,102081.41
2022-08-27T18:46:17.695Z,102088.84
2022-08-27T18:48:44.791Z,102094.13
2022-08-27T18:51:14.712Z,102092.69
2022-08-27T18:53:42.267Z,102092.81
2022-08-27T18:56:11.091Z,102094.06
2022-08-27T18:58:38.799Z,102104.38
2022-08-27T19:01:10.743Z,102097.41
2022-08-27T19:03:42.118Z,102098.53
2022-08-27T19:06:09.806Z,102104.25
2022-08-27T19:08:37.559Z,102108.19
2022-08-27T19:11:04.540Z,102105.34
2022-08-27T19:13:31.451Z,102108.63
2022-08-27T19:16:01.881Z,102116.88
2022-08-27T19:18:29.806Z,102117.00
2022-08-27T19:20:57.067Z,102112.56
2022-08-27T19:23:24.208Z,102123.66
2022-08-27T19:25:52.612Z,102117.81
2022-08-27T19:28:24.777Z,102130.00
2022-08-27T19:30:51.318Z,102133.63
2022-08-27T19:33:18.273Z,102127.91
2022-08-27T19:35:45.007Z,102125.03
2022-08-27T19:38:13.805Z,102129.16
2022-08-27T19:40:41.425Z,102138.09
2022-08-27T19:43:09.315Z,102147.63
2022-08-27T19:45:40.415Z,102146.34
2022-08-27T19:48:08.010Z,102148.38
2022-08-27T19:50:35.359Z,102151.22
2022-08-27T19:53:02.018Z,102145.94
2022-08-27T19:55:28.851Z,102154.94
2022-08-27T19:57:55.701Z,102151.28
2022-08-27T20:00:27.627Z,102159.97
2022-08-27T20:02:55.102Z,102161.38
2022-08-27T20:05:23.001Z,102155.34
2022-08-27T20:07:53.112Z,102158.94
2022-08-27T20:10:28.604Z,102164.44
2022-08-27T20:12:58.579Z,102159.69
2022-08-27T20:15:26.224Z,102165.19
2022-08-27T20:17:53.940Z,102168.78
2022-08-27T20:20:23.751Z,102168.88
2022-08-27T20:22:50.995Z,102170.63
2022-08-27T20:25:18.451Z,102169.94
2022-08-27T20:27:45.041Z,102162.78
2022-08-27T20:30:14.531Z,102166.84
2022-08-27T20:32:41.372Z,102168.56
2022-08-27T20:35:09.855Z,102164.34
2022-08-27T20:37:41.951Z,102158.31
2022-08-27T20:40:13.171Z,102156.53
2022-08-27T20:42:39.837Z,102160.13
2022-08-27T20:45:11.363Z,102161.03
2022-08-27T20:47:38.919Z,102162.13
2022-08-27T20:50:06.324Z,102163.84
2022-08-27T20:52:33.073Z,102165.72
2022-08-27T20:54:59.538Z,102176.28
2022-08-27T20:57:26.156Z,102174.19
2022-08-27T21:00:11.039Z,102171.78
2022-08-27T21:02:37.868Z,102177.00
2022-08-27T21:05:11.768Z,102178.38
2022-08-27T21:07:39.030Z,102172.81
2022-08-27T21:10:06.566Z,102184.66
2022-08-27T21:12:33.159Z,102182.56
2022-08-27T21:15:01.862Z,102181.38
2022-08-27T21:17:29.124Z,102183.28
2022-08-27T21:19:56.479Z,102184.66
2022-08-27T21:22:24.340Z,102182.34
2022-08-27T21:24:52.007Z,102179.50
2022-08-27T21:27:21.373Z,102181.19
2022-08-27T21:29:48.202Z,102185.84
2022-08-27T21:32:14.983Z,102181.88
2022-08-27T21:34:42.034Z,102181.66
2022-08-27T21:37:11.156Z,102175.88
2022-08-27T21:39:38.781Z,102179.16
2022-08-27T21:42:05.747Z,102186.72
2022-08-27T21:44:32.562Z,102189.19
2022-08-27T21:47:00.718Z,102185.16
2022-08-27T21:49:28.286Z,102200.00
2022-08-27T21:51:54.940Z,102199.00
2022-08-27T21:54:21.509Z,102194.22
2022-08-27T21:56:53.114Z,102190.22
2022-08-27T21:59:20.009Z,102192.72
2022-08-27T22:01:46.725Z,102186.00
2022-08-27T22:04:13.492Z,102193.88
2022-08-27T22:06:40.412Z,102199.03
2022-08-27T22:09:07.352Z,102195.06
2022-08-27T22:11:34.807Z,102197.22
2022-08-27T22:14:02.033Z,102202.88
2022-08-27T22:16:29.252Z,102210.44
2022-08-27T22:18:57.302Z,102206.47
2022-08-27T22:21:24.921Z,102198.41
2022-08-27T22:23:52.367Z,102205.63
2022-08-27T22:26:20.979Z,102204.66
2022-08-27T22:28:47.971Z,102210.59
2022-08-27T22:31:15.077Z,102206.09
2022-08-27T22:33:41.688Z,102197.53
2022-08-27T22:36:08.463Z,102207.28
2022-08-27T22:38:35.128Z,102202.47
2022-08-27T22:41:02.622Z,102203.56
2022-08-27T22:43:29.451Z,102196.91
2022-08-27T22:45:56.039Z,102206.03
2022-08-27T22:48:22.924Z,102207.41
2022-08-27T22:50:49.590Z,102210.38
2022-08-27T22:53:16.280Z,102217.13
2022-08-27T22:55:45.693Z,102211.25
2022-08-27T22:58:16.011Z,102215.03
2022-08-27T23:00:51.924Z,102215.88
2022-08-27T23:03:19.702Z,102216.47
2022-08-27T23:05:46.640Z,102216.75
2022-08-27T23:08:14.336Z,102215.97
2022-08-27T23:10:43.537Z,102220.81
2022-08-27T23:13:11.327Z,102219.22
2022-08-27T23:15:38.793Z,102219.22
2022-08-27T23:18:05.516Z,102217.91
2022-08-27T23:20:32.473Z,102225.72
2022-08-27T23:22:59.253Z,102217.47
2022-08-27T23:25:45.102Z,102223.41
2022-08-27T23:28:15.170Z,102225.56
2022-08-27T23:30:44.204Z,102216.50
2022-08-27T23:33:12.906Z,102219.50
2022-08-27T23:35:41.345Z,102217.06
2022-08-27T23:38:08.067Z,102224.09
2022-08-27T23:40:34.711Z,102226.25
2022-08-27T23:43:01.964Z,102223.84
2022-08-27T23:45:28.857Z,102225.75
2022-08-27T23:47:55.379Z,102226.03
2022-08-27T23:50:23.114Z,102228.47
2022-08-27T23:52:58.771Z,102221.81
2022-08-27T23:55:25.329Z,102223.69
2022-08-27T23:57:51.841Z,102225.59
